• Join FlightAware (Why Join?)
  • Login
  • US Flag 
03:40PM EST


 

Airport Tracker/Info


-or-


 

Live Flight TrackerFlight Track Log ✈ WJA661 ✈ 09-Jul-2013 ✈ CYYZ - CYYC

Flight Track Log - Related Links

Times and Time Zones

All times are in EDT time to prevent confusion due to time zone crossing. See the WJA661 flight status page for this flight to view local times or setup timezone preferences in your user account.

Time Position Orientation Groundspeed Altitude Reporting Facility
EDT Latitude Longitude Course Direction KTS MPH feet Rate Location/Type
01:28PM 43.6740 -79.6650 228° Southwest 167 192 1,000  Level FlightAware
01:28PM 43.6580 -79.6950 234° Southwest 199 229 1,900 1,500 Climbing FlightAware
01:28PM 43.6540 -79.7050 241° Southwest 214 246 2,000 2,100 Climbing FlightAware
01:29PM 43.6370 -79.7400 236° Southwest 219 252 3,300 2,667 Climbing FlightAware
01:29PM 43.6280 -79.7590 237° Southwest 220 253 4,000 1,800 Climbing FlightAware
01:29PM 43.6220 -79.7780 246° West 243 280 4,200 2,040 Climbing FlightAware
01:31PM 43.6820 -79.8990 304° West 284 327 7,400 2,348 Climbing FlightAware
01:31PM 43.7070 -79.9400 310° West 289 333 8,700 2,618 Climbing FlightAware
01:32PM 43.7290 -79.9740 312° West 292 336 9,800 1,886 Climbing FlightAware
01:33PM 43.7730 -80.0420 312° West 332 382 10,900 1,533 Climbing FlightAware
01:33PM 43.8200 -80.1130 313° West 363 418 12,100 2,025 Climbing FlightAware
01:34PM 43.8620 -80.1760 313° West 373 429 13,600 2,720 Climbing FlightAware
01:35PM 43.9100 -80.2490 312° West 377 434 15,500 2,526 Climbing FlightAware
01:35PM 43.9730 -80.3430 313° West 385 443 17,600 2,360 Climbing FlightAware
01:36PM 44.0090 -80.3990 312° West 384 442 19,000 2,250 Climbing FlightAware
01:37PM 44.0650 -80.4830 313° West 393 452 20,600 2,000 Climbing FlightAware
01:37PM 44.1150 -80.5600 312° West 404 465 21,900 1,929 Climbing FlightAware
01:38PM 44.1690 -80.6430 312° West 409 471 23,300 1,952 Climbing FlightAware
01:39PM 44.2220 -80.7250 312° West 416 479 24,600 1,692 Climbing FlightAware
01:39PM 44.2700 -80.7990 312° West 425 489 25,500 1,462 Climbing FlightAware
01:40PM 44.3250 -80.8830 312° West 434 499 26,500 1,528 Climbing FlightAware
01:41PM 44.4150 -81.0230 312° West 442 509 28,200 1,794 Climbing FlightAware
01:42PM 44.4680 -81.1070 311° West 434 499 29,700 1,813 Climbing FlightAware
01:43PM 44.5330 -81.2080 312° West 432 497 31,100 1,385 Climbing FlightAware
01:43PM 44.5860 -81.2900 312° West 440 506 31,800 1,024 Climbing FlightAware
01:44PM 44.6510 -81.3930 312° West 451 519 32,500 652 Climbing FlightAware
01:45PM 44.7080 -81.4850 311° West 453 521 32,800 957 Climbing FlightAware
01:46PM 44.7950 -81.6220 312° West 442 509 34,000 774 Climbing FlightAware
01:47PM 44.8550 -81.7160 312° West 440 506 34,000  Level FlightAware
01:47PM 44.8970 -81.7830 312° West 439 505 34,000 80 Level FlightAware
01:48PM 44.9540 -81.8750 311° West 437 503 34,100  Climbing FlightAware
01:48PM 45.0100 -81.9660 311° West 437 503 34,000 -77 Descending FlightAware
01:49PM 45.0570 -82.0420 311° West 435 501 34,000  Level FlightAware
01:50PM 45.1190 -82.1400 312° West 433 498 34,000 79 Level FlightAware
01:50PM 45.1600 -82.2070 311° West 433 498 34,100  Climbing FlightAware
01:51PM 45.2170 -82.3010 311° West 432 497 34,000  Descending FlightAware
01:52PM 45.2710 -82.3880 311° West 430 495 34,100  Climbing FlightAware
01:52PM 45.3250 -82.4760 311° West 429 494 34,000 -74 Descending FlightAware
01:53PM 45.3770 -82.5610 311° West 428 493 34,000 71 Level FlightAware
01:54PM 45.4340 -82.6560 311° West 425 489 34,100 -209 Climbing FlightAware
01:55PM 45.4870 -82.7420 311° West 419 482 33,700 -815 Descending FlightAware
01:55PM 45.5370 -82.8260 310° West 417 480 33,000 -988 Descending FlightAware
01:56PM 45.5940 -82.9190 311° West 421 484 32,300 -951 Descending FlightAware
01:57PM 45.6410 -82.9980 310° West 426 490 31,700 -988 Descending FlightAware
01:57PM 45.7030 -83.1020 311° West 441 507 30,900 -933 Descending FlightAware
01:58PM 45.7590 -83.1960 311° West 441 507 30,300 -659 Descending FlightAware
01:59PM 45.8120 -83.2860 310° West 437 503 30,000 -220 Descending FlightAware
01:59PM 45.8660 -83.3770 310° West 435 501 30,000 56 Level FlightAware
02:01PM 45.9520 -83.5210 311° West 432 497 30,100  Climbing FlightAware
02:01PM 46.0090 -83.6180 310° West 431 496 30,000  Descending FlightAware
02:02PM 46.0610 -83.7070 310° West 430 495 30,100  Climbing FlightAware
02:03PM 46.1160 -83.8030 310° West 430 495 30,000  Descending FlightAware
02:03PM 46.1670 -83.8900 310° West 430 495 30,100  Climbing FlightAware
02:04PM 46.2210 -83.9830 310° West 430 495 30,000 -75 Descending FlightAware
02:05PM 46.2690 -84.0650 310° West 429 494 30,000 70 Level FlightAware
02:05PM 46.3300 -84.1710 310° West 427 491 30,100  Climbing FlightAware
02:06PM 46.3770 -84.2540 309° West 426 490 30,000  Descending FlightAware
02:07PM 46.4280 -84.3550 306° West 420 483 30,100  Climbing FlightAware
02:07PM 46.4670 -84.4530 300° West 418 481 30,000 -75 Descending FlightAware
02:08PM 46.5050 -84.5510 299° West 416 479 30,000 71 Level FlightAware
02:09PM 46.5460 -84.6570 299° West 415 478 30,100  Climbing FlightAware
02:10PM 46.5820 -84.7480 300° West 418 481 30,000  Descending FlightAware
02:10PM 46.6220 -84.8510 300° West 417 480 30,100 65 Climbing FlightAware
02:11PM 46.6650 -84.9640 299° West 416 479 30,100 -65 Level FlightAware
02:12PM 46.7080 -85.0740 300° West 414 476 30,000  Descending FlightAware
02:12PM 46.7450 -85.1720 299° West 411 473 30,100  Climbing FlightAware
02:13PM 46.7860 -85.2790 299° West 411 473 30,000  Descending FlightAware
02:14PM 46.8240 -85.3790 299° West 412 474 30,100 79 Climbing FlightAware
02:14PM 46.8560 -85.4620 299° West 412 474 30,100  Level FlightAware
02:16PM 46.9330 -85.6670 299° West 411 473 30,100 -48 Level FlightAware
02:17PM 46.9710 -85.7690 299° West 412 474 30,000 -79 Descending FlightAware
02:17PM 47.0030 -85.8540 299° West 412 474 30,000  Level FlightAware
02:18PM 47.0440 -85.9620 299° West 412 474 30,000  Level FlightAware
02:19PM 47.0870 -86.0780 299° West 412 474 30,000  Level FlightAware
02:19PM 47.1230 -86.1760 298° West 412 474 30,000  Level FlightAware
02:20PM 47.1590 -86.2750 298° West 412 474 30,000  Level FlightAware
02:21PM 47.1860 -86.3510 298° West 412 474 30,000  Level FlightAware
02:21PM 47.2140 -86.4270 298° West 412 474 30,000  Level FlightAware
02:22PM 47.2440 -86.5110 298° West 412 474 30,000  Level FlightAware
02:23PM 47.2800 -86.6100 298° West 412 474 30,000  Level FlightAware
02:23PM 47.3070 -86.6860 298° West 412 474 30,000  Level FlightAware
02:24PM 47.3360 -86.7670 298° West 412 474 30,000  Level FlightAware
02:25PM 47.3630 -86.8430 298° West 412 474 30,000  Level FlightAware
02:25PM 47.4010 -86.9480 298° West 412 474 30,000  Level FlightAware
02:26PM 47.4290 -87.0260 298° West 412 474 30,000  Level FlightAware
02:27PM 47.4660 -87.1280 298° West 412 474 30,000  Level FlightAware
02:27PM 47.4930 -87.2040 298° West 412 474 30,000  Level FlightAware
02:28PM 47.5210 -87.2800 299° West 412 474 30,000  Level FlightAware
02:29PM 47.5570 -87.3820 298° West 412 474 30,000 4,119 Level FlightAware
02:30PM 47.6730 -87.7130 298° West 394 453 38,100 4,154 Climbing FlightAware
02:31PM 47.7090 -87.8170 297° West 396 456 38,100  Level FlightAware
02:31PM 47.7350 -87.8930 297° West 396 456 38,100  Level FlightAware
02:32PM 47.7690 -87.9920 297° West 396 456 38,100  Level FlightAware
02:33PM 47.7940 -88.0660 297° West 396 456 38,100  Level FlightAware
02:34PM 47.8280 -88.1630 298° West 396 456 38,100  Level FlightAware
02:34PM 47.8970 -88.3660 297° West 400 460 38,100  Level FlightAware
02:35PM 47.9380 -88.4870 297° West 400 460 38,100 -72 Level FlightAware
02:36PM 47.9700 -88.5800 297° West 403 464 38,000 -71 Descending FlightAware
02:37PM 48.0050 -88.6860 296° West 403 464 38,000  Level FlightAware
02:37PM 48.0300 -88.7630 296° West 403 464 38,000  Level FlightAware
02:38PM 48.0720 -88.8930 296° West 403 464 38,000  Level FlightAware
02:39PM 48.0970 -88.9690 296° West 403 464 38,000  Level FlightAware
02:40PM 48.1310 -89.0740 296° West 403 464 38,000 75 Level FlightAware
02:40PM 48.1910 -89.2460 298° West 416 479 38,100 81 Climbing FlightAware
02:41PM 48.2290 -89.3600 297° West 413 475 38,100  Level FlightAware
02:42PM 48.2690 -89.4880 295° West 408 470 38,100  Level FlightAware
02:42PM 48.3020 -89.6010 294° West 410 472 38,100  Level FlightAware
02:43PM 48.3300 -89.7010 293° West 408 470 38,100  Level FlightAware
02:44PM 48.3640 -89.8160 294° West 408 470 38,100  Level FlightAware
02:44PM 48.3920 -89.9140 293° West 408 470 38,100  Level FlightAware
02:45PM 48.4150 -89.9970 293° West 407 468 38,100  Level FlightAware
02:46PM 48.4600 -90.1520 294° West 406 467 38,100  Level FlightAware
02:47PM 48.4910 -90.2610 293° West 404 465 38,100 -72 Level FlightAware
02:47PM 48.5200 -90.3650 293° West 404 465 38,000  Descending FlightAware
02:48PM 48.5490 -90.4680 293° West 405 466 38,100 80 Climbing FlightAware
02:48PM 48.5750 -90.5610 293° West 406 467 38,100 -75 Level FlightAware
02:49PM 48.6070 -90.6760 293° West 408 470 38,000  Descending FlightAware
02:50PM 48.6360 -90.7820 293° West 410 472 38,100 79 Climbing FlightAware
02:50PM 48.6620 -90.8760 293° West 412 474 38,100  Level FlightAware
02:51PM 48.6940 -90.9920 293° West 415 478 38,100  Level FlightAware
02:52PM 48.7250 -91.1070 292° West 418 481 38,100  Level FlightAware
02:53PM 48.7560 -91.2220 292° West 420 483 38,100  Level FlightAware
02:53PM 48.7860 -91.3320 293° West 421 484 38,100 -75 Level FlightAware
02:54PM 48.8150 -91.4400 292° West 420 483 38,000  Descending FlightAware
02:55PM 48.8480 -91.5610 293° West 418 481 38,100 75 Climbing FlightAware
02:55PM 48.8740 -91.6600 292° West 418 481 38,100  Level FlightAware
02:56PM 48.9030 -91.7680 292° West 418 481 38,100  Level FlightAware
02:57PM 48.9350 -91.8900 292° West 419 482 38,100  Level FlightAware
02:57PM 48.9590 -91.9810 292° West 419 482 38,100  Level FlightAware
02:58PM 48.9880 -92.0950 291° West 418 481 38,100  Level FlightAware
02:59PM 49.0140 -92.1950 292° West 417 480 38,100  Level FlightAware
02:59PM 49.0370 -92.2860 291° West 417 480 38,100  Level FlightAware
03:00PM 49.0770 -92.4350 292° West 415 478 38,100 -65 Level FlightAware
03:01PM 49.1050 -92.5450 291° West 415 478 38,000 -77 Descending FlightAware
03:01PM 49.1260 -92.6280 291° West 415 478 38,000  Level FlightAware
03:02PM 49.1690 -92.7960 291° West 414 476 38,000  Level FlightAware
03:03PM 49.1900 -92.8820 291° West 414 476 38,000  Level FlightAware
03:04PM 49.2390 -93.0770 291° West 414 476 38,000  Level FlightAware
03:05PM 49.2590 -93.1560 291° West 414 476 38,000  Level FlightAware
03:06PM 49.2820 -93.2470 291° West 414 476 38,000  Level FlightAware
03:06PM 49.3110 -93.3620 291° West 414 476 38,000  Level FlightAware
03:07PM 49.3320 -93.4450 291° West 414 476 38,000  Level FlightAware
03:08PM 49.3690 -93.5950 291° West 414 476 38,000  Level FlightAware
03:09PM 49.3900 -93.6790 291° West 414 476 38,000  Level FlightAware
03:09PM 49.4180 -93.7910 291° West 414 476 38,000  Level FlightAware
03:10PM 49.4390 -93.8770 291° West 414 476 38,000  Level FlightAware
03:11PM 49.4840 -94.0580 291° West 414 476 38,000  Level FlightAware
03:13PM 49.5667 -94.5167 291° West 420 483 38,000  Level Winnipeg Center
03:14PM 49.6000 -94.7000 286° West 420 483 38,000  Level Winnipeg Center
03:15PM 49.6333 -94.8500 289° West 420 483 38,000  Level Winnipeg Center
03:16PM 49.6833 -95.0333 293° West 420 483 38,000  Level Winnipeg Center
03:17PM 49.7167 -95.2000 287° West 420 483 38,000  Level Winnipeg Center
03:18PM 49.7500 -95.3667 287° West 420 483 38,000  Level Winnipeg Center
03:19PM 49.7833 -95.5333 287° West 420 483 38,000  Level Winnipeg Center
03:20PM 49.8167 -95.7000 287° West 410 472 38,000  Level Winnipeg Center
03:25PM 50.0290 -96.6440 287° West 422 486 38,000  Level FlightAware
03:26PM 50.0500 -96.7490 287° West 422 486 38,000 73 Level FlightAware
03:26PM 50.0760 -96.8790 287° West 427 491 38,100  Climbing FlightAware
03:27PM 50.0980 -96.9890 287° West 428 493 38,000  Descending FlightAware
03:28PM 50.1180 -97.0940 287° West 427 491 38,100 69 Climbing FlightAware
03:28PM 50.1420 -97.2220 286° West 427 491 38,100  Level FlightAware
03:29PM 50.1570 -97.3080 285° West 427 491 38,100  Level FlightAware
03:30PM 50.1950 -97.4940 288° West 430 495 38,100 -56 Level FlightAware
03:31PM 50.2270 -97.6630 287° West 430 495 38,000  Descending FlightAware
03:31PM 50.2480 -97.7720 287° West 430 495 38,100  Climbing FlightAware
03:32PM 50.2720 -97.9010 286° West 429 494 38,000 -71 Descending FlightAware
03:33PM 50.2950 -98.0270 286° West 428 493 38,000  Level FlightAware
03:34PM 50.3180 -98.1500 286° West 427 491 38,000  Level FlightAware
03:34PM 50.3390 -98.2620 286° West 427 491 38,000  Level FlightAware
03:35PM 50.3650 -98.4050 286° West 427 491 38,000  Level FlightAware
03:36PM 50.3860 -98.5230 286° West 427 491 38,000  Level FlightAware
03:36PM 50.4030 -98.6180 286° West 427 491 38,000 77 Level FlightAware
03:37PM 50.4260 -98.7550 285° West 426 490 38,100  Climbing FlightAware
03:38PM 50.4430 -98.8890 281° West 426 490 38,000 -73 Descending FlightAware
03:38PM 50.4570 -99.0040 281° West 427 491 38,000 73 Level FlightAware
03:39PM 50.4730 -99.1380 281° West 428 493 38,100  Climbing FlightAware
03:40PM 50.4880 -99.2590 281° West 429 494 38,000  Descending FlightAware
03:41PM 50.5050 -99.4010 281° West 430 495 38,100  Climbing FlightAware
03:41PM 50.5170 -99.5030 281° West 430 495 38,000 -86 Descending FlightAware
03:42PM 50.5290 -99.6140 280° West 428 493 38,000  Level FlightAware
03:42PM 50.5460 -99.7540 281° West 429 494 38,000  Level FlightAware
03:43PM 50.5580 -99.8650 280° West 429 494 38,000  Level FlightAware
03:44PM 50.5730 -99.9890 281° West 428 493 38,000  Level FlightAware
03:44PM 50.5870 -100.1160 280° West 428 493 38,000  Level FlightAware
03:45PM 50.6010 -100.2460 280° West 427 491 38,000  Level FlightAware
03:46PM 50.6160 -100.3820 280° West 425 489 38,000  Level FlightAware
03:47PM 50.6290 -100.5020 280° West 424 488 38,000  Level FlightAware
03:47PM 50.6480 -100.6770 280° West 422 486 38,000  Level FlightAware
03:48PM 50.6580 -100.7720 279° West 422 486 38,000  Level FlightAware
03:50PM 50.6810 -101.0000 279° West 422 486 38,000  Level FlightAware
03:50PM 50.6900 -101.0930 279° West 422 486 38,000  Level FlightAware
03:51PM 50.7030 -101.2200 279° West 422 486 38,000  Level FlightAware
03:52PM 50.7120 -101.3130 279° West 422 486 38,000  Level FlightAware
03:52PM 50.7240 -101.4370 279° West 422 486 38,000  Level FlightAware
03:53PM 50.7340 -101.5300 280° West 422 486 38,000  Level FlightAware
03:54PM 50.7460 -101.6550 279° West 422 486 38,000  Level FlightAware
03:54PM 50.7550 -101.7450 279° West 422 486 38,000  Level FlightAware
03:55PM 50.7680 -101.8720 279° West 422 486 38,000  Level FlightAware
03:56PM 50.7780 -101.9680 279° West 422 486 38,000  Level FlightAware
03:57PM 50.7900 -102.0930 279° West 422 486 38,000  Level FlightAware
03:57PM 50.7990 -102.1860 279° West 422 486 38,000  Level FlightAware
03:58PM 50.8340 -102.5750 278° West 38,000  Level FlightAware
04:00PM 50.8630 -102.8930 278° West 419 482 38,000  Level FlightAware
04:01PM 50.8750 -103.0300 278° West 418 481 38,000  Level FlightAware
04:01PM 50.8840 -103.1410 277° West 417 480 38,000  Level FlightAware
04:02PM 50.8940 -103.2640 277° West 417 480 38,000  Level FlightAware
04:03PM 50.9050 -103.3890 278° West 415 478 38,000  Level FlightAware
04:03PM 50.9160 -103.5190 278° West 413 475 38,000  Level FlightAware
04:04PM 50.9250 -103.6380 277° West 412 474 38,000  Level FlightAware
04:05PM 50.9340 -103.7570 277° West 412 474 38,000 73 Level FlightAware
04:05PM 50.9440 -103.8790 277° West 415 478 38,100  Climbing FlightAware
04:06PM 50.9530 -103.9940 277° West 416 479 38,000 -71 Descending FlightAware
04:07PM 50.9640 -104.1350 277° West 415 478 38,000  Level FlightAware
04:08PM 50.9740 -104.2710 277° West 414 476 38,000 70 Level FlightAware
04:08PM 50.9830 -104.3950 277° West 415 478 38,100  Climbing FlightAware
04:09PM 50.9940 -104.5460 277° West 416 479 38,000 -66 Descending FlightAware
04:10PM 51.0030 -104.6680 277° West 417 480 38,000  Level FlightAware
04:11PM 51.0190 -104.8930 277° West 418 481 38,000  Level FlightAware
04:12PM 51.0300 -105.0500 276° West 419 482 38,000  Level FlightAware
04:12PM 51.0370 -105.1570 276° West 419 482 38,000  Level FlightAware
04:13PM 51.0460 -105.2970 276° West 418 481 38,000  Level FlightAware
04:14PM 51.0550 -105.4280 276° West 415 478 38,000  Level FlightAware
04:15PM 51.0620 -105.5390 276° West 411 473 38,000  Level FlightAware
04:15PM 51.0710 -105.6870 276° West 409 471 38,000  Level FlightAware
04:16PM 51.0780 -105.7980 276° West 408 470 38,000  Level FlightAware
04:17PM 51.0860 -105.9280 276° West 407 468 38,000  Level FlightAware
04:17PM 51.0940 -106.0650 275° West 405 466 38,000  Level FlightAware
04:18PM 51.1000 -106.1600 276° West 405 466 38,000  Level FlightAware
04:19PM 51.1070 -106.2830 275° West 405 466 38,000  Level FlightAware
04:19PM 51.1140 -106.4120 275° West 408 470 38,000  Level FlightAware
04:20PM 51.1210 -106.5280 276° West 409 471 38,000  Level FlightAware
04:21PM 51.1270 -106.6520 274° West 410 472 38,000  Level FlightAware
04:22PM 51.1360 -106.8290 275° West 410 472 38,000  Level FlightAware
04:23PM 51.1480 -107.0620 275° West 410 472 38,000  Level FlightAware
04:24PM 51.1520 -107.1550 274° West 410 472 38,000  Level FlightAware
04:24PM 51.1620 -107.3280 275° West 407 468 38,000  Level FlightAware
04:25PM 51.1660 -107.4230 274° West 406 467 38,000  Level FlightAware
04:26PM 51.1720 -107.5450 275° West 406 467 38,000  Level FlightAware
04:27PM 51.1760 -107.6390 274° West 406 467 38,000  Level FlightAware
04:27PM 51.1800 -107.7330 274° West 406 467 38,000  Level FlightAware
04:28PM 51.1850 -107.8550 274° West 406 467 38,000  Level FlightAware
04:29PM 51.1890 -107.9470 274° West 406 467 38,000  Level FlightAware
04:29PM 51.1940 -108.0690 274° West 406 467 38,000  Level FlightAware
04:30PM 51.1990 -108.1630 275° West 406 467 38,000  Level FlightAware
04:31PM 51.2040 -108.2870 274° West 406 467 38,000  Level FlightAware
04:31PM 51.2080 -108.3760 274° West 406 467 38,000  Level FlightAware
04:32PM 51.2130 -108.4980 274° West 406 467 38,000  Level FlightAware
04:33PM 51.2170 -108.5900 274° West 406 467 38,000  Level FlightAware
04:34PM 51.2230 -108.7120 275° West 406 467 38,000  Level FlightAware
04:34PM 51.2270 -108.8090 274° West 406 467 38,000  Level FlightAware
04:35PM 51.2000 -109.3000 274° West 400 460 38,000  Level Edmonton Center
04:36PM 51.2167 -109.5000 278° West 400 460 38,000  Level Edmonton Center
04:37PM 51.2167 -109.6500 270° West 400 460 38,000  Level Edmonton Center
04:43PM 51.2790 -110.6560 270° West 411 473 38,000  Level FlightAware
04:44PM 51.2820 -110.7730 272° West 410 472 38,000  Level FlightAware
04:44PM 51.2850 -110.9120 272° West 407 468 38,000  Level FlightAware
04:45PM 51.2880 -111.0320 272° West 404 465 38,000 -75 Level FlightAware
04:46PM 51.2910 -111.1510 272° West 400 460 37,900 -1,200 Descending FlightAware
04:46PM 51.2940 -111.2800 272° West 393 452 36,300 -2,188 Descending FlightAware
04:47PM 51.2960 -111.3960 272° West 392 451 34,800 -2,100 Descending FlightAware
04:48PM 51.2980 -111.5060 272° West 392 451 33,500 -1,976 Descending FlightAware
04:48PM 51.3000 -111.6410 271° West 394 453 32,000 -2,090 Descending FlightAware
04:49PM 51.3030 -111.7750 272° West 404 465 30,400 -2,000 Descending FlightAware
04:50PM 51.3040 -111.8680 271° West 393 452 29,300 -2,047 Descending FlightAware
04:51PM 51.3060 -112.0200 271° West 376 433 27,500 -2,047 Descending FlightAware
04:51PM 51.3080 -112.1150 272° West 367 422 26,400 -1,800 Descending FlightAware
04:52PM 51.3090 -112.2350 271° West 356 410 25,100 -1,820 Descending FlightAware
04:53PM 51.3110 -112.3510 272° West 346 398 23,700 -1,760 Descending FlightAware
04:53PM 51.3110 -112.4270 270° West 339 390 22,900 -1,680 Descending FlightAware
04:54PM 51.3130 -112.5370 272° West 329 379 21,600 -1,733 Descending FlightAware
04:55PM 51.3140 -112.6460 271° West 320 368 20,300 -1,680 Descending FlightAware
04:55PM 51.3140 -112.7140 270° West 314 361 19,500 -1,500 Descending FlightAware
04:56PM 51.3050 -112.8160 262° West 316 364 18,400 -1,533 Descending FlightAware
04:57PM 51.2870 -112.9190 254° West 316 364 17,200 -1,650 Descending FlightAware
04:57PM 51.2730 -112.9990 254° West 312 359 16,200 -1,650 Descending FlightAware
04:58PM 51.2560 -113.0970 255° West 308 354 15,000 -1,753 Descending FlightAware
04:59PM 51.2480 -113.1970 263° West 305 351 13,600 -1,674 Descending FlightAware
04:59PM 51.2420 -113.2870 264° West 301 346 12,600 -1,575 Descending FlightAware
05:00PM 51.2380 -113.3740 266° West 296 341 11,500 -1,575 Descending FlightAware
05:01PM 51.2330 -113.4620 265° West 291 335 10,500 -1,286 Descending FlightAware
05:01PM 51.2290 -113.5230 264° West 278 320 10,000 -1,017 Descending FlightAware
05:02PM 51.2250 -113.5840 264° West 266 306 9,500 -1,082 Descending FlightAware
05:02PM 51.2220 -113.6430 265° West 263 303 8,900 -1,091 Descending FlightAware
05:03PM 51.2190 -113.6900 264° West 259 298 8,500 -764 Descending FlightAware
05:03PM 51.2160 -113.7460 265° West 241 277 8,200 -652 Descending FlightAware
05:03PM 51.2140 -113.7730 263° West 231 266 8,000 -529 Descending FlightAware
05:04PM 51.2120 -113.8040 264° West 222 255 7,900 -462 Descending FlightAware
05:04PM 51.2100 -113.8360 264° West 220 253 7,700 -941 Descending FlightAware
05:05PM 51.2080 -113.8870 266° West 228 262 7,100 -1,200 Descending FlightAware
05:05PM 51.2100 -113.9020 282° West 226 260 6,900 -1,241 Descending FlightAware
05:05PM 51.2250 -113.9260 315° West 225 259 6,500 -1,200 Descending FlightAware
05:05PM 51.2330 -113.9400 312° West 227 261 6,300 -1,154 Descending FlightAware
05:06PM 51.2370 -113.9630 286° West 221 254 6,000 -1,200 Descending FlightAware
05:06PM 51.2310 -114.0000 255° West 202 232 5,500 -1,231 Descending FlightAware
05:06PM 51.2200 -114.0140 219° Southwest 193 222 5,200 -1,200 Descending FlightAware
05:06PM 51.2080 -114.0210 200° South 180 207 4,900 -923 Descending FlightAware
05:07PM 51.1710 -114.0210 180° South 148 170 4,200 -800 Descending FlightAware
05:08PM 51.1530 -114.0210 180° South 145 167 3,900 -750 Descending FlightAware
05:08PM 51.1320 -114.0210 180° South 143 165 3,500 -774 Descending FlightAware
05:09PM 51.1150 -114.0210 180° South 82 94 -7,500 Descending FlightAware
05:10PM 51.1070 -114.0200 176° South 18 21  Level FlightAware
05:10PM 51.1060 -114.0190 148° Southeast 12 14  Level FlightAware
05:11PM 51.1090 -114.0180 12° North 18 21  Level FlightAware
05:12PM 51.1130 -114.0180 360° North 18 21  Level FlightAware
05:12PM 51.1150 -114.0180 360° North 20 23  Level FlightAware
05:13PM 51.1190 -114.0180 360° North 21 24  Level FlightAware
05:13PM 51.1220 -114.0180 360° North 21 24  Level FlightAware
05:14PM 51.1260 -114.0180 360° North 22 25  Level FlightAware
05:15PM 51.1300 -114.0180 360° North 12 14  Level FlightAware